PWSweather.com
Personal Weather Stations
Station Observations
SUBOTICARS
SuboticaYU

SuboticaYU

Lat: 46.1296717, Lon: 19.641551

Elevation: 361

Station Type: Nexus

http://sumeteo.info

High Low Average
Temperature 34.5°F1.4°C 19.8°F-6.8°C 29.6°F-1.3°C
Dew Point 26.9°F-2.8°C 11.6°F-11.3°C 22.1°F-5.5°C
Winds 8.1 mph 13.0 kmh Calm Calm 3.0 mph WSW4.8 kmh WSW
Wind Gusts 10.4 mph16.7 kmh -- 4.0 mph6.4 kmh
Humidity 80% 66% 73%
Pressure 29.75 in1007.5 mb 29.57 in1001.4 mb -
Precipitation 0.00 in0.0 mm - -
Hour Temp Dew Point Humidity Winds Wind Gusts Pressure Precip Precip Rate Daily Precip Total
12:00 AM 20.3°F-6.5°C 11.7°F-11.3°C 69% 1.2 mph W1.9 kmh W 2.3 mph3.7 kmh 29.75 in1007.5 mb - 0.00 in0.0 mm 0.00 in0.0 mm
12:10 AM 20.1°F-6.6°C 11.6°F-11.3°C 69% 1.2 mph W1.9 kmh W 1.2 mph1.9 kmh 29.75 in1007.5 mb - 0.00 in0.0 mm 0.00 in0.0 mm
12:15 AM 19.9°F-6.7°C 11.7°F-11.3°C 70% Calm Calm -- 29.75 in1007.5 mb - 0.00 in0.0 mm 0.00 in0.0 mm
12:20 AM 19.8°F-6.8°C 11.6°F-11.3°C 70% 1.2 mph W1.9 kmh W 2.3 mph3.7 kmh 29.75 in1007.5 mb - 0.00 in0.0 mm 0.00 in0.0 mm
12:25 AM 19.9°F-6.7°C 11.7°F-11.3°C 70% 1.2 mph WSW1.9 kmh WSW 2.3 mph3.7 kmh 29.75 in1007.5 mb - 0.00 in0.0 mm 0.00 in0.0 mm
12:30 AM 19.9°F-6.7°C 11.7°F-11.3°C 70% Calm Calm -- 29.75 in1007.5 mb - 0.00 in0.0 mm 0.00 in0.0 mm
12:35 AM 19.9°F-6.7°C 11.7°F-11.3°C 70% Calm Calm 1.2 mph1.9 kmh 29.75 in1007.5 mb - 0.00 in0.0 mm 0.00 in0.0 mm
12:40 AM 20.1°F-6.6°C 11.9°F-11.2°C 70% 1.2 mph W1.9 kmh W 2.3 mph3.7 kmh 29.75 in1007.5 mb - 0.00 in0.0 mm 0.00 in0.0 mm
12:45 AM 20.3°F-6.5°C 12.4°F-10.9°C 71% Calm Calm 1.2 mph1.9 kmh 29.74 in1007.1 mb - 0.00 in0.0 mm 0.00 in0.0 mm
12:50 AM 20.3°F-6.5°C 12.4°F-10.9°C 71% 2.3 mph WSW3.7 kmh WSW 2.3 mph3.7 kmh 29.74 in1007.1 mb - 0.00 in0.0 mm 0.00 in0.0 mm
12:55 AM 20.4°F-6.4°C 12.5°F-10.8°C 71% 2.3 mph WSW3.7 kmh WSW 3.5 mph5.6 kmh 29.74 in1007.1 mb - 0.00 in0.0 mm 0.00 in0.0 mm
01:00 AM 20.5°F-6.4°C 12.6°F-10.8°C 71% 2.3 mph SW3.7 kmh SW 3.5 mph5.6 kmh 29.74 in1007.1 mb - 0.00 in0.0 mm 0.00 in0.0 mm
01:10 AM 20.8°F-6.2°C 12.9°F-10.6°C 71% 1.2 mph WSW1.9 kmh WSW 1.2 mph1.9 kmh 29.74 in1007.1 mb - 0.00 in0.0 mm 0.00 in0.0 mm
01:15 AM 21.0°F-6.1°C 13.1°F-10.5°C 71% 2.3 mph WSW3.7 kmh WSW 2.3 mph3.7 kmh 29.74 in1007.1 mb - 0.00 in0.0 mm 0.00 in0.0 mm
01:20 AM 21.2°F-6.0°C 13.3°F-10.4°C 71% 1.2 mph WSW1.9 kmh WSW 1.2 mph1.9 kmh 29.74 in1007.1 mb - 0.00 in0.0 mm 0.00 in0.0 mm
01:25 AM 21.4°F-5.9°C 13.1°F-10.5°C 70% 2.3 mph SW3.7 kmh SW 3.5 mph5.6 kmh 29.74 in1007.1 mb - 0.00 in0.0 mm 0.00 in0.0 mm
01:30 AM 21.6°F-5.8°C 13.3°F-10.4°C 70% 1.2 mph WNW1.9 kmh WNW 3.5 mph5.6 kmh 29.74 in1007.1 mb - 0.00 in0.0 mm 0.00 in0.0 mm
01:35 AM 21.9°F-5.6°C 14.0°F-10.0°C 71% 2.3 mph W3.7 kmh W 3.5 mph5.6 kmh 29.74 in1007.1 mb - 0.00 in0.0 mm 0.00 in0.0 mm
01:40 AM 22.3°F-5.4°C 14.3°F-9.8°C 71% 2.3 mph NW3.7 kmh NW 3.5 mph5.6 kmh 29.74 in1007.1 mb - 0.00 in0.0 mm 0.00 in0.0 mm
01:45 AM 22.6°F-5.2°C 14.6°F-9.7°C 71% 2.3 mph SSW3.7 kmh SSW 3.5 mph5.6 kmh 29.74 in1007.1 mb - 0.00 in0.0 mm 0.00 in0.0 mm
01:50 AM 23.0°F-5.0°C 15.0°F-9.4°C 71% 2.3 mph W3.7 kmh W 2.3 mph3.7 kmh 29.74 in1007.1 mb - 0.00 in0.0 mm 0.00 in0.0 mm
01:55 AM 23.4°F-4.8°C 15.3°F-9.3°C 71% 2.3 mph WNW3.7 kmh WNW 3.5 mph5.6 kmh 29.74 in1007.1 mb - 0.00 in0.0 mm 0.00 in0.0 mm
02:00 AM 23.5°F-4.7°C 15.5°F-9.2°C 71% 2.3 mph WSW3.7 kmh WSW 3.5 mph5.6 kmh 29.74 in1007.1 mb - 0.00 in0.0 mm 0.00 in0.0 mm
02:10 AM 23.9°F-4.5°C 15.5°F-9.2°C 70% 2.3 mph WNW3.7 kmh WNW 3.5 mph5.6 kmh 29.74 in1007.1 mb - 0.00 in0.0 mm 0.00 in0.0 mm
02:15 AM 24.1°F-4.4°C 15.7°F-9.1°C 70% 2.3 mph WSW3.7 kmh WSW 2.3 mph3.7 kmh 29.74 in1007.1 mb - 0.00 in0.0 mm 0.00 in0.0 mm
02:20 AM 24.1°F-4.4°C 15.7°F-9.1°C 70% 2.3 mph WNW3.7 kmh WNW 2.3 mph3.7 kmh 29.74 in1007.1 mb - 0.00 in0.0 mm 0.00 in0.0 mm
02:25 AM 24.3°F-4.3°C 15.9°F-8.9°C 70% 2.3 mph WSW3.7 kmh WSW 2.3 mph3.7 kmh 29.74 in1007.1 mb - 0.00 in0.0 mm 0.00 in0.0 mm
02:30 AM 24.4°F-4.2°C 16.1°F-8.8°C 70% 2.3 mph W3.7 kmh W 3.5 mph5.6 kmh 29.74 in1007.1 mb - 0.00 in0.0 mm 0.00 in0.0 mm
02:35 AM 24.6°F-4.1°C 16.2°F-8.8°C 70% 2.3 mph WSW3.7 kmh WSW 5.8 mph9.3 kmh 29.74 in1007.1 mb - 0.00 in0.0 mm 0.00 in0.0 mm
02:40 AM 24.6°F-4.1°C 15.9°F-8.9°C 69% 2.3 mph W3.7 kmh W 3.5 mph5.6 kmh 29.74 in1007.1 mb - 0.00 in0.0 mm 0.00 in0.0 mm
02:45 AM 24.8°F-4.0°C 16.1°F-8.8°C 69% 2.3 mph W3.7 kmh W 3.5 mph5.6 kmh 29.73 in1006.8 mb - 0.00 in0.0 mm 0.00 in0.0 mm
02:50 AM 25.1°F-3.8°C 16.4°F-8.7°C 69% 3.5 mph WSW5.6 kmh WSW 2.3 mph3.7 kmh 29.73 in1006.8 mb - 0.00 in0.0 mm 0.00 in0.0 mm
02:55 AM 25.2°F-3.8°C 16.4°F-8.7°C 69% 2.3 mph WSW3.7 kmh WSW 5.8 mph9.3 kmh 29.73 in1006.8 mb - 0.00 in0.0 mm 0.00 in0.0 mm
03:00 AM 25.3°F-3.7°C 16.2°F-8.8°C 68% 2.3 mph WSW3.7 kmh WSW 3.5 mph5.6 kmh 29.73 in1006.8 mb - 0.00 in0.0 mm 0.00 in0.0 mm
03:10 AM 25.5°F-3.6°C 16.4°F-8.7°C 68% 3.5 mph SW5.6 kmh SW 3.5 mph5.6 kmh 29.73 in1006.8 mb - 0.00 in0.0 mm 0.00 in0.0 mm
03:15 AM 25.5°F-3.6°C 16.4°F-8.7°C 68% 2.3 mph WSW3.7 kmh WSW 3.5 mph5.6 kmh 29.72 in1006.4 mb - 0.00 in0.0 mm 0.00 in0.0 mm
03:20 AM 25.6°F-3.6°C 16.5°F-8.6°C 68% 2.3 mph W3.7 kmh W 3.5 mph5.6 kmh 29.72 in1006.4 mb - 0.00 in0.0 mm 0.00 in0.0 mm
03:25 AM 25.7°F-3.5°C 16.6°F-8.6°C 68% 3.5 mph SW5.6 kmh SW 3.5 mph5.6 kmh 29.72 in1006.4 mb - 0.00 in0.0 mm 0.00 in0.0 mm
03:30 AM 25.9°F-3.4°C 16.8°F-8.4°C 68% 2.3 mph WNW3.7 kmh WNW 2.3 mph3.7 kmh 29.71 in1006.1 mb - 0.00 in0.0 mm 0.00 in0.0 mm
03:35 AM 26.1°F-3.3°C 16.6°F-8.6°C 67% 2.3 mph SW3.7 kmh SW 3.5 mph5.6 kmh 29.71 in1006.1 mb - 0.00 in0.0 mm 0.00 in0.0 mm
03:40 AM 26.1°F-3.3°C 16.6°F-8.6°C 67% 2.3 mph W3.7 kmh W 4.6 mph7.4 kmh 29.71 in1006.1 mb - 0.00 in0.0 mm 0.00 in0.0 mm
03:45 AM 26.2°F-3.2°C 16.8°F-8.4°C 67% 3.5 mph SW5.6 kmh SW 3.5 mph5.6 kmh 29.72 in1006.4 mb - 0.00 in0.0 mm 0.00 in0.0 mm
03:50 AM 26.2°F-3.2°C 16.8°F-8.4°C 67% 2.3 mph WNW3.7 kmh WNW 3.5 mph5.6 kmh 29.72 in1006.4 mb - 0.00 in0.0 mm 0.00 in0.0 mm
03:55 AM 26.2°F-3.2°C 16.8°F-8.4°C 67% 3.5 mph SW5.6 kmh SW 3.5 mph5.6 kmh 29.72 in1006.4 mb - 0.00 in0.0 mm 0.00 in0.0 mm
04:00 AM 26.4°F-3.1°C 16.9°F-8.4°C 67% 4.6 mph WSW7.4 kmh WSW 4.6 mph7.4 kmh 29.70 in1005.8 mb - 0.00 in0.0 mm 0.00 in0.0 mm
04:10 AM 26.4°F-3.1°C 16.9°F-8.4°C 67% 2.3 mph W3.7 kmh W 4.6 mph7.4 kmh 29.70 in1005.8 mb - 0.00 in0.0 mm 0.00 in0.0 mm
04:15 AM 26.6°F-3.0°C 16.8°F-8.4°C 66% 2.3 mph SW3.7 kmh SW 2.3 mph3.7 kmh 29.71 in1006.1 mb - 0.00 in0.0 mm 0.00 in0.0 mm
04:20 AM 26.6°F-3.0°C 16.8°F-8.4°C 66% 3.5 mph WSW5.6 kmh WSW 4.6 mph7.4 kmh 29.71 in1006.1 mb - 0.00 in0.0 mm 0.00 in0.0 mm
04:25 AM 26.6°F-3.0°C 16.8°F-8.4°C 66% 3.5 mph SW5.6 kmh SW 3.5 mph5.6 kmh 29.71 in1006.1 mb - 0.00 in0.0 mm 0.00 in0.0 mm
04:30 AM 26.6°F-3.0°C 16.8°F-8.4°C 66% 4.6 mph SW7.4 kmh SW 3.5 mph5.6 kmh 29.70 in1005.8 mb - 0.00 in0.0 mm 0.00 in0.0 mm
04:35 AM 26.6°F-3.0°C 17.1°F-8.3°C 67% 4.6 mph SW7.4 kmh SW 3.5 mph5.6 kmh 29.70 in1005.8 mb - 0.00 in0.0 mm 0.00 in0.0 mm
04:40 AM 26.4°F-3.1°C 16.9°F-8.4°C 67% 2.3 mph SW3.7 kmh SW 3.5 mph5.6 kmh 29.70 in1005.8 mb - 0.00 in0.0 mm 0.00 in0.0 mm
04:45 AM 26.4°F-3.1°C 16.9°F-8.4°C 67% 3.5 mph SSW5.6 kmh SSW 4.6 mph7.4 kmh 29.70 in1005.8 mb - 0.00 in0.0 mm 0.00 in0.0 mm
04:50 AM 26.4°F-3.1°C 16.9°F-8.4°C 67% 3.5 mph WSW5.6 kmh WSW 4.6 mph7.4 kmh 29.70 in1005.8 mb - 0.00 in0.0 mm 0.00 in0.0 mm
04:55 AM 26.5°F-3.1°C 17.0°F-8.3°C 67% 3.5 mph SSW5.6 kmh SSW 5.8 mph9.3 kmh 29.70 in1005.8 mb - 0.00 in0.0 mm 0.00 in0.0 mm
05:00 AM 26.6°F-3.0°C 17.1°F-8.3°C 67% 3.5 mph WSW5.6 kmh WSW 4.6 mph7.4 kmh 29.70 in1005.8 mb - 0.00 in0.0 mm 0.00 in0.0 mm
05:10 AM 26.6°F-3.0°C 17.1°F-8.3°C 67% 3.5 mph WSW5.6 kmh WSW 5.8 mph9.3 kmh 29.70 in1005.8 mb - 0.00 in0.0 mm 0.00 in0.0 mm
05:15 AM 26.6°F-3.0°C 17.1°F-8.3°C 67% 4.6 mph WSW7.4 kmh WSW 6.9 mph11.1 kmh 29.69 in1005.4 mb - 0.00 in0.0 mm 0.00 in0.0 mm
05:20 AM 26.6°F-3.0°C 16.8°F-8.4°C 66% 4.6 mph WSW7.4 kmh WSW 5.8 mph9.3 kmh 29.69 in1005.4 mb - 0.00 in0.0 mm 0.00 in0.0 mm
05:25 AM 26.6°F-3.0°C 16.8°F-8.4°C 66% 4.6 mph SW7.4 kmh SW 6.9 mph11.1 kmh 29.69 in1005.4 mb - 0.00 in0.0 mm 0.00 in0.0 mm
05:30 AM 26.6°F-3.0°C 16.8°F-8.4°C 66% 4.6 mph WSW7.4 kmh WSW 5.8 mph9.3 kmh 29.69 in1005.4 mb - 0.00 in0.0 mm 0.00 in0.0 mm
05:35 AM 26.8°F-2.9°C 16.9°F-8.4°C 66% 4.6 mph SSW7.4 kmh SSW 3.5 mph5.6 kmh 29.69 in1005.4 mb - 0.00 in0.0 mm 0.00 in0.0 mm
05:40 AM 26.8°F-2.9°C 16.9°F-8.4°C 66% 5.8 mph WSW9.3 kmh WSW 5.8 mph9.3 kmh 29.69 in1005.4 mb - 0.00 in0.0 mm 0.00 in0.0 mm
05:45 AM 26.8°F-2.9°C 16.9°F-8.4°C 66% 3.5 mph WSW5.6 kmh WSW 5.8 mph9.3 kmh 29.69 in1005.4 mb - 0.00 in0.0 mm 0.00 in0.0 mm
05:50 AM 27.0°F-2.8°C 17.1°F-8.3°C 66% 4.6 mph SW7.4 kmh SW 6.9 mph11.1 kmh 29.69 in1005.4 mb - 0.00 in0.0 mm 0.00 in0.0 mm
05:55 AM 27.0°F-2.8°C 17.1°F-8.3°C 66% 4.6 mph WSW7.4 kmh WSW 4.6 mph7.4 kmh 29.69 in1005.4 mb - 0.00 in0.0 mm 0.00 in0.0 mm
06:00 AM 27.0°F-2.8°C 17.1°F-8.3°C 66% 4.6 mph SW7.4 kmh SW 5.8 mph9.3 kmh 29.69 in1005.4 mb - 0.00 in0.0 mm 0.00 in0.0 mm
06:10 AM 27.3°F-2.6°C 17.5°F-8.1°C 66% 5.8 mph SSW9.3 kmh SSW 5.8 mph9.3 kmh 29.69 in1005.4 mb - 0.00 in0.0 mm 0.00 in0.0 mm
06:15 AM 27.5°F-2.5°C 17.9°F-7.8°C 67% 3.5 mph SW5.6 kmh SW 5.8 mph9.3 kmh 29.69 in1005.4 mb - 0.00 in0.0 mm 0.00 in0.0 mm
06:20 AM 27.5°F-2.5°C 18.0°F-7.8°C 67% 3.5 mph SW5.6 kmh SW 4.6 mph7.4 kmh 29.69 in1005.4 mb - 0.00 in0.0 mm 0.00 in0.0 mm
06:25 AM 27.5°F-2.5°C 18.0°F-7.8°C 67% 3.5 mph W5.6 kmh W 5.8 mph9.3 kmh 29.69 in1005.4 mb - 0.00 in0.0 mm 0.00 in0.0 mm
06:30 AM 27.7°F-2.4°C 18.1°F-7.7°C 67% 3.5 mph WSW5.6 kmh WSW 5.8 mph9.3 kmh 29.68 in1005.1 mb - 0.00 in0.0 mm 0.00 in0.0 mm
06:35 AM 27.7°F-2.4°C 18.1°F-7.7°C 67% 4.6 mph SW7.4 kmh SW 5.8 mph9.3 kmh 29.68 in1005.1 mb - 0.00 in0.0 mm 0.00 in0.0 mm
06:40 AM 27.9°F-2.3°C 18.3°F-7.6°C 67% 3.5 mph SW5.6 kmh SW 4.6 mph7.4 kmh 29.68 in1005.1 mb - 0.00 in0.0 mm 0.00 in0.0 mm
06:45 AM 27.7°F-2.4°C 18.1°F-7.7°C 67% 4.6 mph SW7.4 kmh SW 8.1 mph13.0 kmh 29.68 in1005.1 mb - 0.00 in0.0 mm 0.00 in0.0 mm
06:50 AM 27.9°F-2.3°C 18.7°F-7.4°C 68% 4.6 mph WSW7.4 kmh WSW 5.8 mph9.3 kmh 29.68 in1005.1 mb - 0.00 in0.0 mm 0.00 in0.0 mm
06:55 AM 27.7°F-2.4°C 18.8°F-7.3°C 69% 3.5 mph WSW5.6 kmh WSW 3.5 mph5.6 kmh 29.68 in1005.1 mb - 0.00 in0.0 mm 0.00 in0.0 mm
07:00 AM 27.7°F-2.4°C 19.2°F-7.1°C 70% 4.6 mph W7.4 kmh W 5.8 mph9.3 kmh 29.69 in1005.4 mb - 0.00 in0.0 mm 0.00 in0.0 mm
07:10 AM 27.7°F-2.4°C 19.5°F-6.9°C 71% 4.6 mph SW7.4 kmh SW 5.8 mph9.3 kmh 29.69 in1005.4 mb - 0.00 in0.0 mm 0.00 in0.0 mm
07:15 AM 27.7°F-2.4°C 19.5°F-6.9°C 71% 4.6 mph WSW7.4 kmh WSW 6.9 mph11.1 kmh 29.69 in1005.4 mb - 0.00 in0.0 mm 0.00 in0.0 mm
07:20 AM 27.6°F-2.4°C 19.4°F-7.0°C 71% 4.6 mph WSW7.4 kmh WSW 9.2 mph14.8 kmh 29.69 in1005.4 mb - 0.00 in0.0 mm 0.00 in0.0 mm
07:25 AM 27.5°F-2.5°C 19.7°F-6.8°C 72% 3.5 mph WSW5.6 kmh WSW 6.9 mph11.1 kmh 29.69 in1005.4 mb - 0.00 in0.0 mm 0.00 in0.0 mm
07:30 AM 27.5°F-2.5°C 19.7°F-6.8°C 72% 4.6 mph WSW7.4 kmh WSW 5.8 mph9.3 kmh 29.69 in1005.4 mb - 0.00 in0.0 mm 0.00 in0.0 mm
07:35 AM 27.5°F-2.5°C 19.7°F-6.8°C 72% 3.5 mph WSW5.6 kmh WSW 3.5 mph5.6 kmh 29.69 in1005.4 mb - 0.00 in0.0 mm 0.00 in0.0 mm
07:40 AM 27.5°F-2.5°C 20.0°F-6.7°C 73% 4.6 mph WSW7.4 kmh WSW 8.1 mph13.0 kmh 29.69 in1005.4 mb - 0.00 in0.0 mm 0.00 in0.0 mm
07:45 AM 27.5°F-2.5°C 20.0°F-6.7°C 73% 3.5 mph SW5.6 kmh SW 3.5 mph5.6 kmh 29.69 in1005.4 mb - 0.00 in0.0 mm 0.00 in0.0 mm
07:50 AM 27.5°F-2.5°C 20.0°F-6.7°C 73% 4.6 mph SW7.4 kmh SW 5.8 mph9.3 kmh 29.69 in1005.4 mb - 0.00 in0.0 mm 0.00 in0.0 mm
07:55 AM 27.5°F-2.5°C 20.0°F-6.7°C 73% 3.5 mph SW5.6 kmh SW 3.5 mph5.6 kmh 29.69 in1005.4 mb - 0.00 in0.0 mm 0.00 in0.0 mm
08:00 AM 27.5°F-2.5°C 20.0°F-6.7°C 73% 5.8 mph SW9.3 kmh SW 8.1 mph13.0 kmh 29.70 in1005.8 mb - 0.00 in0.0 mm 0.00 in0.0 mm
08:10 AM 27.5°F-2.5°C 20.6°F-6.3°C 75% 3.5 mph SW5.6 kmh SW 4.6 mph7.4 kmh 29.70 in1005.8 mb - 0.00 in0.0 mm 0.00 in0.0 mm
08:15 AM 27.5°F-2.5°C 20.6°F-6.3°C 75% 4.6 mph WSW7.4 kmh WSW 6.9 mph11.1 kmh 29.69 in1005.4 mb - 0.00 in0.0 mm 0.00 in0.0 mm
08:20 AM 27.5°F-2.5°C 20.6°F-6.3°C 75% 4.6 mph WSW7.4 kmh WSW 6.9 mph11.1 kmh 29.69 in1005.4 mb - 0.00 in0.0 mm 0.00 in0.0 mm
08:25 AM 27.5°F-2.5°C 21.5°F-5.8°C 78% 5.8 mph SW9.3 kmh SW 9.2 mph14.8 kmh 29.69 in1005.4 mb - 0.00 in0.0 mm 0.00 in0.0 mm
08:30 AM 27.5°F-2.5°C 21.5°F-5.8°C 78% 5.8 mph SW9.3 kmh SW 8.1 mph13.0 kmh 29.69 in1005.4 mb - 0.00 in0.0 mm 0.00 in0.0 mm
08:35 AM 27.5°F-2.5°C 21.5°F-5.8°C 78% 5.8 mph WSW9.3 kmh WSW 6.9 mph11.1 kmh 29.69 in1005.4 mb - 0.00 in0.0 mm 0.00 in0.0 mm
08:40 AM 27.5°F-2.5°C 21.5°F-5.8°C 78% 5.8 mph WSW9.3 kmh WSW 8.1 mph13.0 kmh 29.69 in1005.4 mb - 0.00 in0.0 mm 0.00 in0.0 mm
08:45 AM 27.5°F-2.5°C 21.5°F-5.8°C 78% 5.8 mph WNW9.3 kmh WNW 6.9 mph11.1 kmh 29.69 in1005.4 mb - 0.00 in0.0 mm 0.00 in0.0 mm
08:50 AM 27.5°F-2.5°C 21.5°F-5.8°C 78% 3.5 mph NW5.6 kmh NW 3.5 mph5.6 kmh 29.69 in1005.4 mb - 0.00 in0.0 mm 0.00 in0.0 mm
08:55 AM 27.5°F-2.5°C 21.5°F-5.8°C 78% 3.5 mph WNW5.6 kmh WNW 6.9 mph11.1 kmh 29.69 in1005.4 mb - 0.00 in0.0 mm 0.00 in0.0 mm
09:00 AM 28.0°F-2.2°C 22.4°F-5.3°C 79% 5.8 mph W9.3 kmh W 8.1 mph13.0 kmh 29.69 in1005.4 mb - 0.00 in0.0 mm 0.00 in0.0 mm
09:10 AM 28.0°F-2.2°C 22.4°F-5.3°C 79% 5.8 mph SW9.3 kmh SW 8.1 mph13.0 kmh 29.69 in1005.4 mb - 0.00 in0.0 mm 0.00 in0.0 mm
09:15 AM 28.0°F-2.2°C 22.4°F-5.3°C 79% 6.9 mph S11.1 kmh S 9.2 mph14.8 kmh 29.69 in1005.4 mb - 0.00 in0.0 mm 0.00 in0.0 mm
09:20 AM 28.0°F-2.2°C 22.4°F-5.3°C 79% 6.9 mph WSW11.1 kmh WSW 10.4 mph16.7 kmh 29.69 in1005.4 mb - 0.00 in0.0 mm 0.00 in0.0 mm
09:25 AM 28.0°F-2.2°C 22.4°F-5.3°C 79% 5.8 mph NW9.3 kmh NW 6.9 mph11.1 kmh 29.69 in1005.4 mb - 0.00 in0.0 mm 0.00 in0.0 mm
09:30 AM 28.0°F-2.2°C 22.4°F-5.3°C 79% 8.1 mph W13.0 kmh W 10.4 mph16.7 kmh 29.69 in1005.4 mb - 0.00 in0.0 mm 0.00 in0.0 mm
09:35 AM 28.0°F-2.2°C 22.4°F-5.3°C 79% 5.8 mph WSW9.3 kmh WSW 6.9 mph11.1 kmh 29.69 in1005.4 mb - 0.00 in0.0 mm 0.00 in0.0 mm
09:40 AM 28.0°F-2.2°C 22.4°F-5.3°C 79% 4.6 mph SW7.4 kmh SW 6.9 mph11.1 kmh 29.69 in1005.4 mb - 0.00 in0.0 mm 0.00 in0.0 mm
09:45 AM 28.0°F-2.2°C 22.4°F-5.3°C 79% 5.8 mph SW9.3 kmh SW 6.9 mph11.1 kmh 29.69 in1005.4 mb - 0.00 in0.0 mm 0.00 in0.0 mm
09:50 AM 28.0°F-2.2°C 22.4°F-5.3°C 79% 4.6 mph NW7.4 kmh NW 4.6 mph7.4 kmh 29.69 in1005.4 mb - 0.00 in0.0 mm 0.00 in0.0 mm
09:55 AM 28.0°F-2.2°C 22.4°F-5.3°C 79% 3.5 mph WSW5.6 kmh WSW 4.6 mph7.4 kmh 29.69 in1005.4 mb - 0.00 in0.0 mm 0.00 in0.0 mm
10:00 AM 28.0°F-2.2°C 22.4°F-5.3°C 79% 4.6 mph SW7.4 kmh SW 5.8 mph9.3 kmh 29.69 in1005.4 mb - 0.00 in0.0 mm 0.00 in0.0 mm
10:10 AM 28.0°F-2.2°C 22.4°F-5.3°C 79% 6.9 mph SW11.1 kmh SW 10.4 mph16.7 kmh 29.69 in1005.4 mb - 0.00 in0.0 mm 0.00 in0.0 mm
10:15 AM 28.0°F-2.2°C 22.4°F-5.3°C 79% 5.8 mph WSW9.3 kmh WSW 10.4 mph16.7 kmh 29.69 in1005.4 mb - 0.00 in0.0 mm 0.00 in0.0 mm
10:20 AM 28.0°F-2.2°C 22.4°F-5.3°C 79% 5.8 mph W9.3 kmh W 8.1 mph13.0 kmh 29.69 in1005.4 mb - 0.00 in0.0 mm 0.00 in0.0 mm
10:25 AM 28.0°F-2.2°C 22.4°F-5.3°C 79% 4.6 mph SW7.4 kmh SW 8.1 mph13.0 kmh 29.69 in1005.4 mb - 0.00 in0.0 mm 0.00 in0.0 mm
10:30 AM 28.0°F-2.2°C 22.4°F-5.3°C 79% 4.6 mph SW7.4 kmh SW 4.6 mph7.4 kmh 29.68 in1005.1 mb - 0.00 in0.0 mm 0.00 in0.0 mm
10:35 AM 28.0°F-2.2°C 22.4°F-5.3°C 79% 4.6 mph SW7.4 kmh SW 3.5 mph5.6 kmh 29.68 in1005.1 mb - 0.00 in0.0 mm 0.00 in0.0 mm
10:40 AM 28.0°F-2.2°C 22.4°F-5.3°C 79% 5.8 mph WNW9.3 kmh WNW 5.8 mph9.3 kmh 29.68 in1005.1 mb - 0.00 in0.0 mm 0.00 in0.0 mm
10:45 AM 30.2°F-1.0°C 22.9°F-5.1°C 74% 4.6 mph WSW7.4 kmh WSW 5.8 mph9.3 kmh 29.68 in1005.1 mb - 0.00 in0.0 mm 0.00 in0.0 mm
10:50 AM 30.2°F-1.0°C 22.9°F-5.1°C 74% 3.5 mph SSW5.6 kmh SSW 4.6 mph7.4 kmh 29.68 in1005.1 mb - 0.00 in0.0 mm 0.00 in0.0 mm
10:55 AM 30.2°F-1.0°C 22.9°F-5.1°C 74% 6.9 mph WSW11.1 kmh WSW 9.2 mph14.8 kmh 29.68 in1005.1 mb - 0.00 in0.0 mm 0.00 in0.0 mm
11:00 AM 30.2°F-1.0°C 22.9°F-5.1°C 74% 4.6 mph WSW7.4 kmh WSW 6.9 mph11.1 kmh 29.68 in1005.1 mb - 0.00 in0.0 mm 0.00 in0.0 mm
11:10 AM 30.6°F-0.8°C 22.7°F-5.2°C 72% 5.8 mph WSW9.3 kmh WSW 4.6 mph7.4 kmh 29.68 in1005.1 mb - 0.00 in0.0 mm 0.00 in0.0 mm
11:15 AM 30.9°F-0.6°C 23.0°F-5.0°C 72% 3.5 mph WSW5.6 kmh WSW 4.6 mph7.4 kmh 29.66 in1004.4 mb - 0.00 in0.0 mm 0.00 in0.0 mm
11:20 AM 31.1°F-0.5°C 23.1°F-4.9°C 72% 4.6 mph WNW7.4 kmh WNW 4.6 mph7.4 kmh 29.66 in1004.4 mb - 0.00 in0.0 mm 0.00 in0.0 mm
11:25 AM 31.1°F-0.5°C 23.1°F-4.9°C 72% 4.6 mph W7.4 kmh W 4.6 mph7.4 kmh 29.66 in1004.4 mb - 0.00 in0.0 mm 0.00 in0.0 mm
11:30 AM 31.3°F-0.4°C 23.0°F-5.0°C 71% 4.6 mph WSW7.4 kmh WSW 10.4 mph16.7 kmh 29.66 in1004.4 mb - 0.00 in0.0 mm 0.00 in0.0 mm
11:35 AM 31.5°F-0.3°C 23.1°F-4.9°C 71% 5.8 mph WNW9.3 kmh WNW 6.9 mph11.1 kmh 29.66 in1004.4 mb - 0.00 in0.0 mm 0.00 in0.0 mm
11:40 AM 31.6°F-0.2°C 23.3°F-4.8°C 71% 4.6 mph W7.4 kmh W 4.6 mph7.4 kmh 29.66 in1004.4 mb - 0.00 in0.0 mm 0.00 in0.0 mm
11:45 AM 31.7°F-0.2°C 23.4°F-4.8°C 71% 5.8 mph NW9.3 kmh NW 8.1 mph13.0 kmh 29.66 in1004.4 mb - 0.00 in0.0 mm 0.00 in0.0 mm
11:50 AM 32.0°F0.0°C 23.7°F-4.6°C 71% 4.6 mph WNW7.4 kmh WNW 4.6 mph7.4 kmh 29.66 in1004.4 mb - 0.00 in0.0 mm 0.00 in0.0 mm
11:55 AM 32.0°F0.0°C 23.7°F-4.6°C 71% 5.8 mph SW9.3 kmh SW 8.1 mph13.0 kmh 29.66 in1004.4 mb - 0.00 in0.0 mm 0.00 in0.0 mm
12:00 PM 32.0°F0.0°C 23.3°F-4.8°C 70% 4.6 mph WNW7.4 kmh WNW 4.6 mph7.4 kmh 29.65 in1004.1 mb - 0.00 in0.0 mm 0.00 in0.0 mm
12:10 PM 32.3°F0.2°C 23.3°F-4.8°C 69% 5.8 mph NW9.3 kmh NW 8.1 mph13.0 kmh 29.65 in1004.1 mb - 0.00 in0.0 mm 0.00 in0.0 mm
12:15 PM 32.4°F0.2°C 23.3°F-4.8°C 69% 5.8 mph WNW9.3 kmh WNW 6.9 mph11.1 kmh 29.65 in1004.1 mb - 0.00 in0.0 mm 0.00 in0.0 mm
12:20 PM 32.5°F0.3°C 23.5°F-4.7°C 69% 4.6 mph W7.4 kmh W 3.5 mph5.6 kmh 29.65 in1004.1 mb - 0.00 in0.0 mm 0.00 in0.0 mm
12:25 PM 32.7°F0.4°C 23.7°F-4.6°C 69% 3.5 mph WNW5.6 kmh WNW 4.6 mph7.4 kmh 29.65 in1004.1 mb - 0.00 in0.0 mm 0.00 in0.0 mm
12:30 PM 32.7°F0.4°C 24.0°F-4.4°C 70% 3.5 mph W5.6 kmh W 2.3 mph3.7 kmh 29.65 in1004.1 mb - 0.00 in0.0 mm 0.00 in0.0 mm
12:35 PM 32.9°F0.5°C 24.2°F-4.3°C 70% 4.6 mph WNW7.4 kmh WNW 5.8 mph9.3 kmh 29.65 in1004.1 mb - 0.00 in0.0 mm 0.00 in0.0 mm
12:40 PM 33.1°F0.6°C 24.0°F-4.4°C 69% 5.8 mph WNW9.3 kmh WNW 6.9 mph11.1 kmh 29.65 in1004.1 mb - 0.00 in0.0 mm 0.00 in0.0 mm
12:45 PM 33.1°F0.6°C 24.4°F-4.2°C 70% 3.5 mph WSW5.6 kmh WSW 3.5 mph5.6 kmh 29.64 in1003.7 mb - 0.00 in0.0 mm 0.00 in0.0 mm
12:50 PM 33.3°F0.7°C 24.5°F-4.2°C 70% 4.6 mph WSW7.4 kmh WSW 8.1 mph13.0 kmh 29.64 in1003.7 mb - 0.00 in0.0 mm 0.00 in0.0 mm
12:55 PM 33.4°F0.8°C 24.7°F-4.1°C 70% 3.5 mph W5.6 kmh W 5.8 mph9.3 kmh 29.64 in1003.7 mb - 0.00 in0.0 mm 0.00 in0.0 mm
01:00 PM 33.4°F0.8°C 24.7°F-4.1°C 70% 3.5 mph WSW5.6 kmh WSW 4.6 mph7.4 kmh 29.64 in1003.7 mb - 0.00 in0.0 mm 0.00 in0.0 mm
01:10 PM 33.8°F1.0°C 25.0°F-3.9°C 70% 3.5 mph WNW5.6 kmh WNW 8.1 mph13.0 kmh 29.64 in1003.7 mb - 0.00 in0.0 mm 0.00 in0.0 mm
01:15 PM 33.8°F1.0°C 25.0°F-3.9°C 70% 3.5 mph NW5.6 kmh NW 5.8 mph9.3 kmh 29.64 in1003.7 mb - 0.00 in0.0 mm 0.00 in0.0 mm
01:20 PM 33.8°F1.0°C 25.0°F-3.9°C 70% 3.5 mph NW5.6 kmh NW 4.6 mph7.4 kmh 29.64 in1003.7 mb - 0.00 in0.0 mm 0.00 in0.0 mm
01:25 PM 33.8°F1.0°C 25.0°F-3.9°C 70% 5.8 mph NW9.3 kmh NW 8.1 mph13.0 kmh 29.64 in1003.7 mb - 0.00 in0.0 mm 0.00 in0.0 mm
01:30 PM 33.8°F1.0°C 25.0°F-3.9°C 70% 3.5 mph WNW5.6 kmh WNW 6.9 mph11.1 kmh 29.64 in1003.7 mb - 0.00 in0.0 mm 0.00 in0.0 mm
01:35 PM 33.8°F1.0°C 25.0°F-3.9°C 70% 3.5 mph WNW5.6 kmh WNW 3.5 mph5.6 kmh 29.64 in1003.7 mb - 0.00 in0.0 mm 0.00 in0.0 mm
01:40 PM 33.8°F1.0°C 25.0°F-3.9°C 70% 3.5 mph WNW5.6 kmh WNW 3.5 mph5.6 kmh 29.64 in1003.7 mb - 0.00 in0.0 mm 0.00 in0.0 mm
01:45 PM 34.0°F1.1°C 25.6°F-3.6°C 71% 3.5 mph W5.6 kmh W 3.5 mph5.6 kmh 29.64 in1003.7 mb - 0.00 in0.0 mm 0.00 in0.0 mm
01:50 PM 34.0°F1.1°C 25.2°F-3.8°C 70% 3.5 mph W5.6 kmh W 3.5 mph5.6 kmh 29.64 in1003.7 mb - 0.00 in0.0 mm 0.00 in0.0 mm
01:55 PM 34.0°F1.1°C 25.6°F-3.6°C 71% 2.3 mph W3.7 kmh W 3.5 mph5.6 kmh 29.64 in1003.7 mb - 0.00 in0.0 mm 0.00 in0.0 mm
02:00 PM 34.0°F1.1°C 25.6°F-3.6°C 71% 2.3 mph WNW3.7 kmh WNW 3.5 mph5.6 kmh 29.64 in1003.7 mb - 0.00 in0.0 mm 0.00 in0.0 mm
02:10 PM 34.2°F1.2°C 25.7°F-3.5°C 71% 2.3 mph WNW3.7 kmh WNW 3.5 mph5.6 kmh 29.64 in1003.7 mb - 0.00 in0.0 mm 0.00 in0.0 mm
02:15 PM 34.2°F1.2°C 25.7°F-3.5°C 71% 2.3 mph WSW3.7 kmh WSW 2.3 mph3.7 kmh 29.64 in1003.7 mb - 0.00 in0.0 mm 0.00 in0.0 mm
02:20 PM 34.3°F1.3°C 25.9°F-3.4°C 71% 2.3 mph WNW3.7 kmh WNW 3.5 mph5.6 kmh 29.64 in1003.7 mb - 0.00 in0.0 mm 0.00 in0.0 mm
02:25 PM 34.3°F1.3°C 25.9°F-3.4°C 71% 3.5 mph WNW5.6 kmh WNW 3.5 mph5.6 kmh 29.64 in1003.7 mb - 0.00 in0.0 mm 0.00 in0.0 mm
02:30 PM 34.3°F1.3°C 25.9°F-3.4°C 71% 3.5 mph W5.6 kmh W 3.5 mph5.6 kmh 29.64 in1003.7 mb - 0.00 in0.0 mm 0.00 in0.0 mm
02:35 PM 34.3°F1.3°C 25.9°F-3.4°C 71% 2.3 mph NNW3.7 kmh NNW 3.5 mph5.6 kmh 29.64 in1003.7 mb - 0.00 in0.0 mm 0.00 in0.0 mm
02:40 PM 34.3°F1.3°C 25.9°F-3.4°C 71% 3.5 mph SSW5.6 kmh SSW 2.3 mph3.7 kmh 29.64 in1003.7 mb - 0.00 in0.0 mm 0.00 in0.0 mm
02:45 PM 34.5°F1.4°C 26.4°F-3.1°C 72% 2.3 mph W3.7 kmh W 3.5 mph5.6 kmh 29.64 in1003.7 mb - 0.00 in0.0 mm 0.00 in0.0 mm
02:50 PM 34.3°F1.3°C 25.9°F-3.4°C 71% 3.5 mph W5.6 kmh W 5.8 mph9.3 kmh 29.64 in1003.7 mb - 0.00 in0.0 mm 0.00 in0.0 mm
02:55 PM 34.3°F1.3°C 26.2°F-3.2°C 72% 3.5 mph WNW5.6 kmh WNW 4.6 mph7.4 kmh 29.64 in1003.7 mb - 0.00 in0.0 mm 0.00 in0.0 mm
03:00 PM 34.3°F1.3°C 26.2°F-3.2°C 72% 2.3 mph WNW3.7 kmh WNW 3.5 mph5.6 kmh 29.64 in1003.7 mb - 0.00 in0.0 mm 0.00 in0.0 mm
03:10 PM 34.3°F1.3°C 26.2°F-3.2°C 72% 2.3 mph W3.7 kmh W 3.5 mph5.6 kmh 29.64 in1003.7 mb - 0.00 in0.0 mm 0.00 in0.0 mm
03:15 PM 34.3°F1.3°C 26.2°F-3.2°C 72% 5.8 mph WNW9.3 kmh WNW 5.8 mph9.3 kmh 29.64 in1003.7 mb - 0.00 in0.0 mm 0.00 in0.0 mm
03:20 PM 34.2°F1.2°C 26.1°F-3.3°C 72% 2.3 mph WNW3.7 kmh WNW 3.5 mph5.6 kmh 29.64 in1003.7 mb - 0.00 in0.0 mm 0.00 in0.0 mm
03:25 PM 34.2°F1.2°C 26.1°F-3.3°C 72% 2.3 mph WNW3.7 kmh WNW 3.5 mph5.6 kmh 29.64 in1003.7 mb - 0.00 in0.0 mm 0.00 in0.0 mm
03:30 PM 34.2°F1.2°C 26.1°F-3.3°C 72% 3.5 mph WNW5.6 kmh WNW 3.5 mph5.6 kmh 29.64 in1003.7 mb - 0.00 in0.0 mm 0.00 in0.0 mm
03:35 PM 34.2°F1.2°C 26.4°F-3.1°C 73% 2.3 mph WNW3.7 kmh WNW 3.5 mph5.6 kmh 29.64 in1003.7 mb - 0.00 in0.0 mm 0.00 in0.0 mm
03:40 PM 34.2°F1.2°C 26.4°F-3.1°C 73% 2.3 mph WNW3.7 kmh WNW 3.5 mph5.6 kmh 29.64 in1003.7 mb - 0.00 in0.0 mm 0.00 in0.0 mm
03:45 PM 34.2°F1.2°C 26.4°F-3.1°C 73% 1.2 mph WNW1.9 kmh WNW 2.3 mph3.7 kmh 29.64 in1003.7 mb - 0.00 in0.0 mm 0.00 in0.0 mm
03:50 PM 34.2°F1.2°C 26.4°F-3.1°C 73% 2.3 mph WNW3.7 kmh WNW 2.3 mph3.7 kmh 29.64 in1003.7 mb - 0.00 in0.0 mm 0.00 in0.0 mm
03:55 PM 34.2°F1.2°C 26.4°F-3.1°C 73% 2.3 mph W3.7 kmh W 2.3 mph3.7 kmh 29.64 in1003.7 mb - 0.00 in0.0 mm 0.00 in0.0 mm
04:00 PM 34.0°F1.1°C 26.2°F-3.2°C 73% 3.5 mph SW5.6 kmh SW 4.6 mph7.4 kmh 29.64 in1003.7 mb - 0.00 in0.0 mm 0.00 in0.0 mm
04:10 PM 33.8°F1.0°C 26.4°F-3.1°C 74% 3.5 mph WSW5.6 kmh WSW 4.6 mph7.4 kmh 29.64 in1003.7 mb - 0.00 in0.0 mm 0.00 in0.0 mm
04:15 PM 33.8°F1.0°C 26.4°F-3.1°C 74% 3.5 mph SW5.6 kmh SW 3.5 mph5.6 kmh 29.64 in1003.7 mb - 0.00 in0.0 mm 0.00 in0.0 mm
04:20 PM 33.8°F1.0°C 26.7°F-2.9°C 75% 2.3 mph SW3.7 kmh SW 2.3 mph3.7 kmh 29.64 in1003.7 mb - 0.00 in0.0 mm 0.00 in0.0 mm
04:25 PM 33.8°F1.0°C 26.7°F-2.9°C 75% 2.3 mph WSW3.7 kmh WSW 3.5 mph5.6 kmh 29.64 in1003.7 mb - 0.00 in0.0 mm 0.00 in0.0 mm
04:30 PM 33.6°F0.9°C 26.6°F-3.0°C 75% 2.3 mph WSW3.7 kmh WSW 2.3 mph3.7 kmh 29.63 in1003.4 mb - 0.00 in0.0 mm 0.00 in0.0 mm
04:35 PM 33.6°F0.9°C 26.5°F-3.1°C 75% 1.2 mph W1.9 kmh W 2.3 mph3.7 kmh 29.63 in1003.4 mb - 0.00 in0.0 mm 0.00 in0.0 mm
04:40 PM 33.6°F0.9°C 26.5°F-3.1°C 75% 2.3 mph WSW3.7 kmh WSW 2.3 mph3.7 kmh 29.63 in1003.4 mb - 0.00 in0.0 mm 0.00 in0.0 mm
04:45 PM 33.6°F0.9°C 26.5°F-3.1°C 75% 2.3 mph WSW3.7 kmh WSW 2.3 mph3.7 kmh 29.64 in1003.7 mb - 0.00 in0.0 mm 0.00 in0.0 mm
04:50 PM 33.4°F0.8°C 26.7°F-2.9°C 76% 2.3 mph SW3.7 kmh SW 3.5 mph5.6 kmh 29.64 in1003.7 mb - 0.00 in0.0 mm 0.00 in0.0 mm
04:55 PM 33.4°F0.8°C 26.7°F-2.9°C 76% 1.2 mph SW1.9 kmh SW 2.3 mph3.7 kmh 29.64 in1003.7 mb - 0.00 in0.0 mm 0.00 in0.0 mm
05:00 PM 33.3°F0.7°C 26.5°F-3.1°C 76% 2.3 mph SW3.7 kmh SW 2.3 mph3.7 kmh 29.63 in1003.4 mb - 0.00 in0.0 mm 0.00 in0.0 mm
05:10 PM 33.1°F0.6°C 26.3°F-3.2°C 76% Calm Calm 1.2 mph1.9 kmh 29.63 in1003.4 mb - 0.00 in0.0 mm 0.00 in0.0 mm
05:15 PM 33.1°F0.6°C 26.3°F-3.2°C 76% 2.3 mph SW3.7 kmh SW 3.5 mph5.6 kmh 29.63 in1003.4 mb - 0.00 in0.0 mm 0.00 in0.0 mm
05:20 PM 32.9°F0.5°C 26.2°F-3.2°C 76% 2.3 mph WNW3.7 kmh WNW 3.5 mph5.6 kmh 29.63 in1003.4 mb - 0.00 in0.0 mm 0.00 in0.0 mm
05:25 PM 32.9°F0.5°C 26.2°F-3.2°C 76% 1.2 mph W1.9 kmh W 2.3 mph3.7 kmh 29.63 in1003.4 mb - 0.00 in0.0 mm 0.00 in0.0 mm
05:30 PM 32.9°F0.5°C 26.2°F-3.2°C 76% 1.2 mph W1.9 kmh W 2.3 mph3.7 kmh 29.63 in1003.4 mb - 0.00 in0.0 mm 0.00 in0.0 mm
05:35 PM 32.9°F0.5°C 26.8°F-2.9°C 78% 2.3 mph SW3.7 kmh SW 2.3 mph3.7 kmh 29.63 in1003.4 mb - 0.00 in0.0 mm 0.00 in0.0 mm
05:40 PM 32.7°F0.4°C 26.6°F-3.0°C 78% 2.3 mph SW3.7 kmh SW 2.3 mph3.7 kmh 29.63 in1003.4 mb - 0.00 in0.0 mm 0.00 in0.0 mm
05:45 PM 32.7°F0.4°C 26.6°F-3.0°C 78% 1.2 mph W1.9 kmh W 1.2 mph1.9 kmh 29.63 in1003.4 mb - 0.00 in0.0 mm 0.00 in0.0 mm
05:50 PM 32.7°F0.4°C 26.6°F-3.0°C 78% 2.3 mph SW3.7 kmh SW 3.5 mph5.6 kmh 29.63 in1003.4 mb - 0.00 in0.0 mm 0.00 in0.0 mm
05:55 PM 32.7°F0.4°C 26.6°F-3.0°C 78% 2.3 mph SW3.7 kmh SW 3.5 mph5.6 kmh 29.63 in1003.4 mb - 0.00 in0.0 mm 0.00 in0.0 mm
06:00 PM 32.7°F0.4°C 26.6°F-3.0°C 78% 1.2 mph SW1.9 kmh SW 1.2 mph1.9 kmh 29.64 in1003.7 mb - 0.00 in0.0 mm 0.00 in0.0 mm
06:10 PM 32.7°F0.4°C 26.6°F-3.0°C 78% 2.3 mph WNW3.7 kmh WNW 2.3 mph3.7 kmh 29.64 in1003.7 mb - 0.00 in0.0 mm 0.00 in0.0 mm
06:15 PM 32.7°F0.4°C 26.6°F-3.0°C 78% 2.3 mph WNW3.7 kmh WNW 2.3 mph3.7 kmh 29.63 in1003.4 mb - 0.00 in0.0 mm 0.00 in0.0 mm
06:20 PM 32.7°F0.4°C 26.9°F-2.8°C 79% 2.3 mph WNW3.7 kmh WNW 2.3 mph3.7 kmh 29.63 in1003.4 mb - 0.00 in0.0 mm 0.00 in0.0 mm
06:25 PM 32.7°F0.4°C 26.6°F-3.0°C 78% 2.3 mph SW3.7 kmh SW 3.5 mph5.6 kmh 29.63 in1003.4 mb - 0.00 in0.0 mm 0.00 in0.0 mm
06:30 PM 32.7°F0.4°C 26.6°F-3.0°C 78% 2.3 mph WNW3.7 kmh WNW 2.3 mph3.7 kmh 29.64 in1003.7 mb - 0.00 in0.0 mm 0.00 in0.0 mm
06:35 PM 32.7°F0.4°C 26.6°F-3.0°C 78% 1.2 mph WNW1.9 kmh WNW 2.3 mph3.7 kmh 29.64 in1003.7 mb - 0.00 in0.0 mm 0.00 in0.0 mm
06:40 PM 32.7°F0.4°C 26.6°F-3.0°C 78% 2.3 mph W3.7 kmh W 2.3 mph3.7 kmh 29.64 in1003.7 mb - 0.00 in0.0 mm 0.00 in0.0 mm
06:45 PM 32.7°F0.4°C 26.6°F-3.0°C 78% 2.3 mph WSW3.7 kmh WSW 2.3 mph3.7 kmh 29.64 in1003.7 mb - 0.00 in0.0 mm 0.00 in0.0 mm
06:50 PM 32.7°F0.4°C 26.6°F-3.0°C 78% 1.2 mph NW1.9 kmh NW 2.3 mph3.7 kmh 29.64 in1003.7 mb - 0.00 in0.0 mm 0.00 in0.0 mm
06:55 PM 32.7°F0.4°C 26.6°F-3.0°C 78% 2.3 mph W3.7 kmh W 2.3 mph3.7 kmh 29.64 in1003.7 mb - 0.00 in0.0 mm 0.00 in0.0 mm
07:00 PM 32.7°F0.4°C 26.9°F-2.8°C 79% 2.3 mph SW3.7 kmh SW 2.3 mph3.7 kmh 29.63 in1003.4 mb - 0.00 in0.0 mm 0.00 in0.0 mm
07:10 PM 32.5°F0.3°C 26.7°F-2.9°C 79% 2.3 mph SW3.7 kmh SW 3.5 mph5.6 kmh 29.63 in1003.4 mb - 0.00 in0.0 mm 0.00 in0.0 mm
07:15 PM 32.5°F0.3°C 26.7°F-2.9°C 79% 2.3 mph SW3.7 kmh SW 3.5 mph5.6 kmh 29.64 in1003.7 mb - 0.00 in0.0 mm 0.00 in0.0 mm
07:20 PM 32.5°F0.3°C 26.4°F-3.1°C 78% 2.3 mph WSW3.7 kmh WSW 3.5 mph5.6 kmh 29.64 in1003.7 mb - 0.00 in0.0 mm 0.00 in0.0 mm
07:25 PM 32.4°F0.2°C 26.3°F-3.2°C 78% 2.3 mph W3.7 kmh W 2.3 mph3.7 kmh 29.64 in1003.7 mb - 0.00 in0.0 mm 0.00 in0.0 mm
07:30 PM 32.4°F0.2°C 26.3°F-3.2°C 78% 1.2 mph SSW1.9 kmh SSW 3.5 mph5.6 kmh 29.63 in1003.4 mb - 0.00 in0.0 mm 0.00 in0.0 mm
07:35 PM 32.4°F0.2°C 26.3°F-3.2°C 78% 1.2 mph W1.9 kmh W 2.3 mph3.7 kmh 29.63 in1003.4 mb - 0.00 in0.0 mm 0.00 in0.0 mm
07:40 PM 32.2°F0.1°C 26.1°F-3.3°C 78% 2.3 mph WNW3.7 kmh WNW 1.2 mph1.9 kmh 29.63 in1003.4 mb - 0.00 in0.0 mm 0.00 in0.0 mm
07:45 PM 32.2°F0.1°C 26.1°F-3.3°C 78% 2.3 mph W3.7 kmh W 3.5 mph5.6 kmh 29.64 in1003.7 mb - 0.00 in0.0 mm 0.00 in0.0 mm
07:50 PM 32.2°F0.1°C 26.1°F-3.3°C 78% 2.3 mph W3.7 kmh W 2.3 mph3.7 kmh 29.64 in1003.7 mb - 0.00 in0.0 mm 0.00 in0.0 mm
07:55 PM 32.2°F0.1°C 26.1°F-3.3°C 78% 2.3 mph WNW3.7 kmh WNW 3.5 mph5.6 kmh 29.64 in1003.7 mb - 0.00 in0.0 mm 0.00 in0.0 mm
08:00 PM 32.2°F0.1°C 26.1°F-3.3°C 78% 2.3 mph NW3.7 kmh NW 3.5 mph5.6 kmh 29.62 in1003.0 mb - 0.00 in0.0 mm 0.00 in0.0 mm
08:10 PM 32.2°F0.1°C 26.1°F-3.3°C 78% 2.3 mph WNW3.7 kmh WNW 3.5 mph5.6 kmh 29.62 in1003.0 mb - 0.00 in0.0 mm 0.00 in0.0 mm
08:15 PM 32.4°F0.2°C 26.3°F-3.2°C 78% 2.3 mph WNW3.7 kmh WNW 3.5 mph5.6 kmh 29.63 in1003.4 mb - 0.00 in0.0 mm 0.00 in0.0 mm
08:20 PM 32.4°F0.2°C 26.3°F-3.2°C 78% 2.3 mph WNW3.7 kmh WNW 3.5 mph5.6 kmh 29.63 in1003.4 mb - 0.00 in0.0 mm 0.00 in0.0 mm
08:25 PM 32.4°F0.2°C 26.3°F-3.2°C 78% 1.2 mph WNW1.9 kmh WNW 2.3 mph3.7 kmh 29.63 in1003.4 mb - 0.00 in0.0 mm 0.00 in0.0 mm
08:30 PM 32.4°F0.2°C 26.3°F-3.2°C 78% 2.3 mph WNW3.7 kmh WNW 3.5 mph5.6 kmh 29.63 in1003.4 mb - 0.00 in0.0 mm 0.00 in0.0 mm
08:35 PM 32.4°F0.2°C 26.3°F-3.2°C 78% 2.3 mph WNW3.7 kmh WNW 3.5 mph5.6 kmh 29.63 in1003.4 mb - 0.00 in0.0 mm 0.00 in0.0 mm
08:40 PM 32.4°F0.2°C 26.3°F-3.2°C 78% 2.3 mph WNW3.7 kmh WNW 3.5 mph5.6 kmh 29.63 in1003.4 mb - 0.00 in0.0 mm 0.00 in0.0 mm
08:45 PM 32.4°F0.2°C 26.6°F-3.0°C 79% 2.3 mph WSW3.7 kmh WSW 3.5 mph5.6 kmh 29.62 in1003.0 mb - 0.00 in0.0 mm 0.00 in0.0 mm
08:50 PM 32.4°F0.2°C 26.6°F-3.0°C 79% 1.2 mph W1.9 kmh W 2.3 mph3.7 kmh 29.62 in1003.0 mb - 0.00 in0.0 mm 0.00 in0.0 mm
08:55 PM 32.4°F0.2°C 26.6°F-3.0°C 79% 2.3 mph SW3.7 kmh SW 3.5 mph5.6 kmh 29.62 in1003.0 mb - 0.00 in0.0 mm 0.00 in0.0 mm
09:00 PM 32.4°F0.2°C 26.6°F-3.0°C 79% 2.3 mph SW3.7 kmh SW 3.5 mph5.6 kmh 29.62 in1003.0 mb - 0.00 in0.0 mm 0.00 in0.0 mm
09:10 PM 32.2°F0.1°C 26.7°F-2.9°C 80% 2.3 mph WNW3.7 kmh WNW 2.3 mph3.7 kmh 29.62 in1003.0 mb - 0.00 in0.0 mm 0.00 in0.0 mm
09:15 PM 32.2°F0.1°C 26.7°F-2.9°C 80% 2.3 mph WNW3.7 kmh WNW 2.3 mph3.7 kmh 29.62 in1003.0 mb - 0.00 in0.0 mm 0.00 in0.0 mm
09:20 PM 32.2°F0.1°C 26.7°F-2.9°C 80% 1.2 mph WNW1.9 kmh WNW 2.3 mph3.7 kmh 29.62 in1003.0 mb - 0.00 in0.0 mm 0.00 in0.0 mm
09:25 PM 32.2°F0.1°C 26.7°F-2.9°C 80% 2.3 mph SW3.7 kmh SW 2.3 mph3.7 kmh 29.62 in1003.0 mb - 0.00 in0.0 mm 0.00 in0.0 mm
09:30 PM 32.2°F0.1°C 26.7°F-2.9°C 80% 2.3 mph SW3.7 kmh SW 3.5 mph5.6 kmh 29.61 in1002.7 mb - 0.00 in0.0 mm 0.00 in0.0 mm
09:35 PM 32.2°F0.1°C 26.7°F-2.9°C 80% 2.3 mph WSW3.7 kmh WSW 2.3 mph3.7 kmh 29.61 in1002.7 mb - 0.00 in0.0 mm 0.00 in0.0 mm
09:40 PM 32.2°F0.1°C 26.7°F-2.9°C 80% 2.3 mph W3.7 kmh W 2.3 mph3.7 kmh 29.61 in1002.7 mb - 0.00 in0.0 mm 0.00 in0.0 mm
09:45 PM 32.2°F0.1°C 26.7°F-2.9°C 80% 2.3 mph WSW3.7 kmh WSW 2.3 mph3.7 kmh 29.61 in1002.7 mb - 0.00 in0.0 mm 0.00 in0.0 mm
09:50 PM 32.2°F0.1°C 26.4°F-3.1°C 79% 2.3 mph SW3.7 kmh SW 2.3 mph3.7 kmh 29.61 in1002.7 mb - 0.00 in0.0 mm 0.00 in0.0 mm
09:55 PM 32.0°F0.0°C 26.2°F-3.2°C 79% 1.2 mph WSW1.9 kmh WSW 2.3 mph3.7 kmh 29.61 in1002.7 mb - 0.00 in0.0 mm 0.00 in0.0 mm
10:00 PM 32.0°F0.0°C 26.2°F-3.2°C 79% 2.3 mph SW3.7 kmh SW 3.5 mph5.6 kmh 29.60 in1002.4 mb - 0.00 in0.0 mm 0.00 in0.0 mm
10:10 PM 32.0°F0.0°C 26.2°F-3.2°C 79% 2.3 mph SW3.7 kmh SW 2.3 mph3.7 kmh 29.60 in1002.4 mb - 0.00 in0.0 mm 0.00 in0.0 mm
10:15 PM 32.0°F0.0°C 26.2°F-3.2°C 79% 2.3 mph SSW3.7 kmh SSW 3.5 mph5.6 kmh 29.60 in1002.4 mb - 0.00 in0.0 mm 0.00 in0.0 mm
10:20 PM 32.0°F0.0°C 26.2°F-3.2°C 79% 2.3 mph WSW3.7 kmh WSW 2.3 mph3.7 kmh 29.60 in1002.4 mb - 0.00 in0.0 mm 0.00 in0.0 mm
10:25 PM 32.0°F0.0°C 26.2°F-3.2°C 79% 2.3 mph WNW3.7 kmh WNW 2.3 mph3.7 kmh 29.60 in1002.4 mb - 0.00 in0.0 mm 0.00 in0.0 mm
10:30 PM 32.0°F0.0°C 26.2°F-3.2°C 79% 1.2 mph WSW1.9 kmh WSW 2.3 mph3.7 kmh 29.58 in1001.7 mb - 0.00 in0.0 mm 0.00 in0.0 mm
10:35 PM 32.0°F0.0°C 26.2°F-3.2°C 79% 2.3 mph WSW3.7 kmh WSW 3.5 mph5.6 kmh 29.58 in1001.7 mb - 0.00 in0.0 mm 0.00 in0.0 mm
10:40 PM 32.0°F0.0°C 26.2°F-3.2°C 79% 1.2 mph WSW1.9 kmh WSW 2.3 mph3.7 kmh 29.58 in1001.7 mb - 0.00 in0.0 mm 0.00 in0.0 mm
10:45 PM 31.8°F-0.1°C 26.0°F-3.3°C 79% 2.3 mph WSW3.7 kmh WSW 2.3 mph3.7 kmh 29.59 in1002.0 mb - 0.00 in0.0 mm 0.00 in0.0 mm
10:50 PM 31.8°F-0.1°C 26.0°F-3.3°C 79% 3.5 mph SSW5.6 kmh SSW 3.5 mph5.6 kmh 29.59 in1002.0 mb - 0.00 in0.0 mm 0.00 in0.0 mm
10:55 PM 31.6°F-0.2°C 25.9°F-3.4°C 79% 2.3 mph WSW3.7 kmh WSW 2.3 mph3.7 kmh 29.59 in1002.0 mb - 0.00 in0.0 mm 0.00 in0.0 mm
11:00 PM 31.8°F-0.1°C 26.0°F-3.3°C 79% 3.5 mph SW5.6 kmh SW 3.5 mph5.6 kmh 29.59 in1002.0 mb - 0.00 in0.0 mm 0.00 in0.0 mm
11:10 PM 31.6°F-0.2°C 25.9°F-3.4°C 79% 3.5 mph WSW5.6 kmh WSW 3.5 mph5.6 kmh 29.59 in1002.0 mb - 0.00 in0.0 mm 0.00 in0.0 mm
11:15 PM 31.8°F-0.1°C 26.0°F-3.3°C 79% 3.5 mph SW5.6 kmh SW 3.5 mph5.6 kmh 29.58 in1001.7 mb - 0.00 in0.0 mm 0.00 in0.0 mm
11:20 PM 31.8°F-0.1°C 26.0°F-3.3°C 79% 3.5 mph SW5.6 kmh SW 3.5 mph5.6 kmh 29.58 in1001.7 mb - 0.00 in0.0 mm 0.00 in0.0 mm
11:25 PM 31.8°F-0.1°C 25.7°F-3.5°C 78% 3.5 mph WSW5.6 kmh WSW 3.5 mph5.6 kmh 29.58 in1001.7 mb - 0.00 in0.0 mm 0.00 in0.0 mm
11:30 PM 31.8°F-0.1°C 25.7°F-3.5°C 78% 3.5 mph WSW5.6 kmh WSW 3.5 mph5.6 kmh 29.57 in1001.4 mb - 0.00 in0.0 mm 0.00 in0.0 mm
11:35 PM 31.8°F-0.1°C 25.7°F-3.5°C 78% 3.5 mph WSW5.6 kmh WSW 3.5 mph5.6 kmh 29.57 in1001.4 mb - 0.00 in0.0 mm 0.00 in0.0 mm
11:40 PM 31.8°F-0.1°C 25.7°F-3.5°C 78% 3.5 mph WSW5.6 kmh WSW 4.6 mph7.4 kmh 29.57 in1001.4 mb - 0.00 in0.0 mm 0.00 in0.0 mm
11:45 PM 31.8°F-0.1°C 25.7°F-3.5°C 78% 3.5 mph SW5.6 kmh SW 3.5 mph5.6 kmh 29.57 in1001.4 mb - 0.00 in0.0 mm 0.00 in0.0 mm
11:50 PM 31.8°F-0.1°C 25.1°F-3.8°C 76% 3.5 mph WSW5.6 kmh WSW 3.5 mph5.6 kmh 29.57 in1001.4 mb - 0.00 in0.0 mm 0.00 in0.0 mm
11:55 PM 31.8°F-0.1°C 25.1°F-3.8°C 76% 3.5 mph SSW5.6 kmh SSW 3.5 mph5.6 kmh 29.57 in1001.4 mb - 0.00 in0.0 mm 0.00 in0.0 mm